Detall de PIREP

Printer-friendly versionPDF version

[2017/10/07 10:48:00]
Flight IATA:CT3111
Pilot Number:012
Company ICAO:CAT
Aircraft Type:A320/E
PAX:150
Departing Airport: LEPA
Destination Airport: LEBL
Alternate Airport:LEPA
Online: VATSIM
Route:ESPOR W2 NEPAL
Flight Level:F180
No Slew and time accel
No pause
Crash detect
Detect pilot in Cockpit between each 30 and 45 minutes
10:48 Zero fuel Weight: 121651 Lbs, Fuel Weight: 11798 Lbs
10:48 VATSIM:LEPA 071030Z 07014KT 030V100 9999 FEW035 22/12 Q1022 NOSIG
10:48 VATSIM:LEBL 071030Z 03003KT 320V080 9999 FEW035 SCT045 21/09 Q1023 NOSIG
10:49 Parking Brakes off
10:53 Take-off
10:53 Take off Weight: 132794 Lbs
10:53 Wind: 069º @ 014 Knots Heading: 056º
10:53 POS N39º 32´ 56´´ E002º 44´ 51´´
10:53 Gear Up: 169 Knots
10:53 Flaps:3 at 169 Knots
10:54 Flaps:2 at 192 Knots
10:54 Flaps:1 at 200 Knots
10:54 Flaps:0 at 227 Knots
10:59 TOC
10:59 Fuel Weight: 9175 Lb
11:05 TOD
11:05 Fuel Weight: 8308 Lb
11:08 Wind:350º@017 Knots Heading: 342º Ground Speed: 308 Knots Altitude 14904 ft
11:19 Flaps:1 at 200 Knots
11:19 Gear Down: 211 Knots
11:20 Flaps:3 at 164 Knots
11:20 Flaps:4 at 161 Knots
11:20 Flaps:5 at 150 Knots
11:22 TouchDown:Rate -207 ft/min Speed: 134 Knots
11:22 VATSIM:LEBL 071100Z 11007KT 080V150 9999 BKN035 21/09 Q1023 NOSIG
11:22 Land
11:22 Wind:009º@003 Knots
11:22 Heading: 240º
11:22 Flight Duration: 00:29
11:22 Landing Weight: 128682 Lbs
11:22 POS N41º 17´ 54´´ E002º 04´ 56´´
11:23 Parking brakes on
11:23 Block to Block Duration: 00:34
11:23 Final Fuel: 6902 Lbls
11:23 Spent Fuel: 4896 Lbls
11:23 Flight Length: 140 NM
11:23 TOD Land Length: 73 NM

Exportar CSV

Powered by Drupal - Modified by Danger4k